createdAt,value
2019-04-05T00:00:11.472Z,11.4
2019-04-05T00:01:13.619Z,11.5
2019-04-05T00:02:15.697Z,11.4
2019-04-05T00:03:18.104Z,11.5
2019-04-05T00:04:20.196Z,11.5
2019-04-05T00:05:22.291Z,11.6
2019-04-05T00:06:24.651Z,11.6
2019-04-05T00:07:26.817Z,11.7
2019-04-05T00:08:28.916Z,11.7
2019-04-05T00:09:30.997Z,11.6
2019-04-05T00:10:33.502Z,11.6
2019-04-05T00:11:35.582Z,11.6
2019-04-05T00:12:37.685Z,11.3
2019-04-05T00:13:39.787Z,11.5
2019-04-05T00:14:41.905Z,11.6
2019-04-05T00:15:43.983Z,11.6
2019-04-05T00:16:46.076Z,11.5
2019-04-05T00:17:48.157Z,11.6
2019-04-05T00:18:50.244Z,11.5
2019-04-05T00:19:52.347Z,11.4
2019-04-05T00:20:54.445Z,11.3
2019-04-05T00:21:56.533Z,11.4
2019-04-05T00:22:58.640Z,11
2019-04-05T00:24:00.740Z,11.3
2019-04-05T00:25:03.201Z,11.4
2019-04-05T00:26:05.329Z,11.4
2019-04-05T00:27:07.409Z,11.5
2019-04-05T00:28:09.795Z,11.6
2019-04-05T00:29:11.893Z,11.5
2019-04-05T00:30:14.003Z,11.5
2019-04-05T00:31:16.099Z,11.5
2019-04-05T00:32:18.206Z,11.4
2019-04-05T00:33:20.301Z,11.3
2019-04-05T00:34:22.387Z,11.3
2019-04-05T00:35:24.476Z,11.4
2019-04-05T00:36:26.881Z,11.2
2019-04-05T00:37:29.306Z,10.7
2019-04-05T00:38:31.410Z,10.3
2019-04-05T00:39:33.771Z,10.1
2019-04-05T00:40:35.876Z,10
2019-04-05T00:41:37.985Z,10.3
2019-04-05T00:42:40.378Z,10.4
2019-04-05T00:43:42.879Z,10.7
2019-04-05T00:44:44.961Z,11.1
2019-04-05T00:45:47.341Z,11
2019-04-05T00:46:49.446Z,11.1
2019-04-05T00:47:51.552Z,11.2
2019-04-05T00:48:53.914Z,10.9
2019-04-05T00:49:56.023Z,10.5
2019-04-05T00:50:58.104Z,10.2
2019-04-05T00:52:00.195Z,10.9
2019-04-05T00:53:02.300Z,11
2019-04-05T00:54:04.396Z,11.1
2019-04-05T00:55:06.880Z,10.7
2019-04-05T00:56:08.996Z,10.1
2019-04-05T00:57:11.135Z,9.7
2019-04-05T00:58:13.233Z,10.4
2019-04-05T00:59:15.348Z,10.8
2019-04-05T01:00:17.811Z,10.9
2019-04-05T01:01:19.907Z,10.9
2019-04-05T01:02:22.012Z,11
2019-04-05T01:03:24.117Z,11
2019-04-05T01:04:26.214Z,10.9
2019-04-05T01:05:28.631Z,11
2019-04-05T01:06:30.728Z,10.8
2019-04-05T01:07:32.812Z,10.9
2019-04-05T01:08:35.494Z,10.8
2019-04-05T01:09:37.578Z,10.2
2019-04-05T01:10:39.960Z,9.9
2019-04-05T01:11:42.057Z,10.3
2019-04-05T01:12:44.178Z,10.3
2019-04-05T01:13:46.558Z,10.5
2019-04-05T01:14:48.934Z,10.6
2019-04-05T01:15:51.300Z,10.5
2019-04-05T01:16:53.407Z,10.5
2019-04-05T01:17:55.484Z,10.6
2019-04-05T01:18:57.584Z,10.6
2019-04-05T01:20:00.342Z,10.8
2019-04-05T01:21:02.451Z,10.8
2019-04-05T01:22:04.839Z,10.9
2019-04-05T01:23:06.933Z,10.7
2019-04-05T01:24:09.051Z,10.4
2019-04-05T01:25:11.143Z,10.2
2019-04-05T01:26:13.240Z,10.4
2019-04-05T01:27:15.334Z,10.6
2019-04-05T01:28:17.418Z,10.5
2019-04-05T01:29:19.528Z,10.6
2019-04-05T01:30:21.615Z,10.7
2019-04-05T01:31:23.981Z,10.6
2019-04-05T01:32:26.376Z,10.5
2019-04-05T01:33:28.464Z,10.4
2019-04-05T01:34:30.555Z,10.3
2019-04-05T01:35:32.647Z,10.2
2019-04-05T01:36:34.743Z,10.2
2019-04-05T01:37:36.819Z,10.4
2019-04-05T01:38:38.929Z,10.1
2019-04-05T01:39:41.014Z,9.9
2019-04-05T01:40:43.095Z,9.8
2019-04-05T01:41:45.197Z,9.6
2019-04-05T01:42:47.276Z,9.7
2019-04-05T01:43:49.366Z,9.7
2019-04-05T01:44:53.084Z,9.6
2019-04-05T01:45:56.067Z,9.8
2019-04-05T01:46:58.147Z,9.9
2019-04-05T01:48:00.230Z,9.8
2019-04-05T01:49:02.326Z,9.6
2019-04-05T01:50:04.400Z,9.5
2019-04-05T01:51:06.506Z,9.5
2019-04-05T01:52:08.893Z,9.5
2019-04-05T01:53:10.968Z,9.6
2019-04-05T01:54:13.063Z,9.6
2019-04-05T01:55:15.164Z,9.7
2019-04-05T01:56:17.262Z,9.7
2019-04-05T01:57:19.363Z,9.7
2019-04-05T01:58:21.458Z,9.8
2019-04-05T01:59:23.544Z,9.8
2019-04-05T02:00:25.920Z,9.7
2019-04-05T02:01:28.021Z,9.4
2019-04-05T02:02:30.100Z,9.1
2019-04-05T02:03:32.199Z,9
2019-04-05T02:04:34.285Z,9.1
2019-04-05T02:05:36.379Z,9.3
2019-04-05T02:06:38.556Z,9.3
2019-04-05T02:07:40.642Z,9.3
2019-04-05T02:08:43.016Z,9.3
2019-04-05T02:09:45.094Z,9.1
2019-04-05T02:10:47.595Z,9.1
2019-04-05T02:11:49.969Z,9.4
2019-04-05T02:12:52.066Z,9.5
2019-04-05T02:13:54.169Z,9.4
2019-04-05T02:14:56.247Z,9.4
2019-04-05T02:16:08.242Z,9.5
2019-04-05T02:17:10.350Z,9.4
2019-04-05T02:18:12.438Z,9.5
2019-04-05T02:19:14.510Z,9.7
2019-04-05T02:20:16.611Z,9.4
2019-04-05T02:21:19.077Z,9.2
2019-04-05T02:22:21.452Z,9
2019-04-05T02:23:24.121Z,9
2019-04-05T02:24:26.202Z,9.2
2019-04-05T02:25:28.299Z,9.4
2019-04-05T02:26:30.392Z,9.6
2019-04-05T02:27:32.879Z,9.8
2019-04-05T02:28:34.955Z,9.7
2019-04-05T02:29:37.050Z,9.7
2019-04-05T02:30:39.158Z,9.7
2019-04-05T02:31:41.275Z,9.8
2019-04-05T02:32:43.383Z,9.8
2019-04-05T02:33:46.149Z,9.8
2019-04-05T02:34:48.534Z,9.9
2019-04-05T02:35:51.225Z,9.9
2019-04-05T02:36:53.620Z,9.9
2019-04-05T02:37:55.728Z,9.9
2019-04-05T02:38:57.826Z,9.8
2019-04-05T02:39:59.951Z,9.9
2019-04-05T02:41:02.668Z,9.9
2019-04-05T02:42:05.106Z,9.9
2019-04-05T02:43:07.613Z,9.8
2019-04-05T02:44:10.141Z,9.6
2019-04-05T02:45:12.645Z,9.2
2019-04-05T02:46:25.386Z,9.3
2019-04-05T02:47:27.513Z,9.3
2019-04-05T02:48:29.611Z,9.4
2019-04-05T02:49:32.012Z,9.2
2019-04-05T02:50:34.165Z,9.1
2019-04-05T02:51:36.251Z,8.9
2019-04-05T02:52:38.615Z,9
2019-04-05T02:53:41.053Z,9.1
2019-04-05T02:54:43.400Z,9.2
2019-04-05T02:55:45.541Z,9.4
2019-04-05T02:56:47.914Z,9.3
2019-04-05T02:57:50.234Z,9.5
2019-04-05T02:58:52.704Z,9.5
2019-04-05T02:59:55.038Z,9.4
2019-04-05T03:00:57.883Z,9.2
2019-04-05T03:02:01.183Z,8.8
2019-04-05T03:03:03.529Z,8.9
2019-04-05T03:04:06.311Z,8.8
2019-04-05T03:05:08.670Z,9.3
2019-04-05T03:06:10.760Z,9.3
2019-04-05T03:07:13.413Z,9.4
2019-04-05T03:08:15.546Z,9.5
2019-04-05T03:09:17.859Z,9.5
2019-04-05T03:10:20.222Z,9.6
2019-04-05T03:11:22.579Z,9.7
2019-04-05T03:12:24.609Z,9.7
2019-04-05T03:13:27.051Z,9.6
2019-04-05T03:14:29.484Z,9.5
2019-04-05T03:15:31.585Z,9.4
2019-04-05T03:16:43.678Z,9.3
2019-04-05T03:17:46.452Z,9.3
2019-04-05T03:18:48.507Z,9.3
2019-04-05T03:19:50.845Z,9.4
2019-04-05T03:20:52.914Z,9.5
2019-04-05T03:21:55.284Z,9.4
2019-04-05T03:22:57.354Z,9.3
2019-04-05T03:23:59.790Z,9.3
2019-04-05T03:25:02.063Z,9.3
2019-04-05T03:26:04.122Z,9.5
2019-04-05T03:27:06.476Z,9.5
2019-04-05T03:28:08.515Z,9.4
2019-04-05T03:29:10.870Z,9.4
2019-04-05T03:30:13.549Z,9.4
2019-04-05T03:31:16.045Z,9.3
2019-04-05T03:32:18.706Z,9.4
2019-04-05T03:33:21.179Z,9.4
2019-04-05T03:34:23.268Z,9.3
2019-04-05T03:35:26.130Z,9.2
2019-04-05T03:36:28.185Z,9.2
2019-04-05T03:37:30.225Z,9.1
2019-04-05T03:38:32.278Z,9.4
2019-04-05T03:39:34.346Z,9.5
2019-04-05T03:40:37.063Z,9.5
2019-04-05T03:41:39.118Z,9.6
2019-04-05T03:42:41.842Z,9.5
2019-04-05T03:43:44.163Z,9.5
2019-04-05T03:44:46.496Z,9.5
2019-04-05T03:45:48.928Z,9.5
2019-04-05T03:46:59.630Z,9.3
2019-04-05T03:48:01.687Z,9.2
2019-04-05T03:49:04.449Z,9.2
2019-04-05T03:50:07.153Z,9.3
2019-04-05T03:51:09.913Z,9.3
2019-04-05T03:52:11.940Z,9.3
2019-04-05T03:53:13.991Z,9.2
2019-04-05T03:54:16.057Z,9.3
2019-04-05T03:55:18.202Z,9.4
2019-04-05T03:56:20.264Z,9.4
2019-04-05T03:57:22.321Z,9.5
2019-04-05T03:58:24.411Z,9.5
2019-04-05T03:59:27.058Z,9.6
2019-04-05T04:00:29.505Z,9.5
2019-04-05T04:01:31.554Z,9.3
2019-04-05T04:02:33.589Z,9.2
2019-04-05T04:03:35.945Z,9.2
2019-04-05T04:04:38.867Z,9.2
2019-04-05T04:05:41.225Z,9.3
2019-04-05T04:06:43.650Z,9.2
2019-04-05T04:07:45.717Z,9.1
2019-04-05T04:08:48.430Z,9
2019-04-05T04:09:50.489Z,9
2019-04-05T04:10:52.642Z,9
2019-04-05T04:11:55.076Z,9.1
2019-04-05T04:12:57.527Z,9.1
2019-04-05T04:13:59.567Z,9.2
2019-04-05T04:15:01.618Z,9.2
2019-04-05T04:16:04.315Z,9.1
2019-04-05T04:17:14.857Z,9.1
2019-04-05T04:18:17.482Z,9
2019-04-05T04:19:19.634Z,9.1
2019-04-05T04:20:21.666Z,9.1
2019-04-05T04:21:23.717Z,9.2
2019-04-05T04:22:25.877Z,9.2
2019-04-05T04:23:28.223Z,9.3
2019-04-05T04:24:30.535Z,9.3
2019-04-05T04:25:33.262Z,9.3
2019-04-05T04:26:35.306Z,9.2
2019-04-05T04:27:38.122Z,9.1
2019-04-05T04:28:40.852Z,9
2019-04-05T04:29:42.935Z,8.9
2019-04-05T04:30:45.413Z,9
2019-04-05T04:31:47.490Z,9.1
2019-04-05T04:32:49.876Z,9
2019-04-05T04:33:52.207Z,9
2019-04-05T04:34:54.288Z,8.9
2019-04-05T04:35:56.420Z,9
2019-04-05T04:36:58.454Z,9
2019-04-05T04:38:01.068Z,9.1
2019-04-05T04:39:03.124Z,9.2
2019-04-05T04:40:05.176Z,9
2019-04-05T04:41:07.501Z,9
2019-04-05T04:42:10.110Z,9
2019-04-05T04:43:12.214Z,8.9
2019-04-05T04:44:14.253Z,9
2019-04-05T04:45:16.316Z,9
2019-04-05T04:46:18.346Z,8.9
2019-04-05T04:47:29.015Z,8.8
2019-04-05T04:48:31.374Z,9.1
2019-04-05T04:49:33.406Z,8.9
2019-04-05T04:50:35.458Z,8.9
2019-04-05T04:51:37.493Z,8.9
2019-04-05T04:52:39.522Z,8.8
2019-04-05T04:53:41.566Z,8.6
2019-04-05T04:54:43.877Z,8.6
2019-04-05T04:55:45.955Z,8.8
2019-04-05T04:56:47.977Z,8.8
2019-04-05T04:57:50.323Z,8.8
2019-04-05T04:58:52.345Z,8.8
2019-04-05T04:59:54.691Z,8.9
2019-04-05T05:00:56.736Z,8.7
2019-04-05T05:01:58.784Z,8.9
2019-04-05T05:03:01.489Z,9
2019-04-05T05:04:03.916Z,9
2019-04-05T05:05:06.332Z,8.9
2019-04-05T05:06:08.803Z,8.9
2019-04-05T05:07:11.192Z,9
2019-04-05T05:08:13.889Z,9.2
2019-04-05T05:09:15.934Z,9.1
2019-04-05T05:10:17.956Z,9.1
2019-04-05T05:11:20.400Z,9.1
2019-04-05T05:12:22.428Z,9.1
2019-04-05T05:13:24.512Z,9.1
2019-04-05T05:14:26.856Z,8.9
2019-04-05T05:15:29.298Z,8.8
2019-04-05T05:16:31.337Z,8.8
2019-04-05T05:17:40.077Z,8.6
2019-04-05T05:18:42.119Z,8.8
2019-04-05T05:19:44.149Z,8.8
2019-04-05T05:20:46.746Z,8.7
2019-04-05T05:21:48.789Z,8.6
2019-04-05T05:22:50.807Z,8.6
2019-04-05T05:23:53.520Z,8.6
2019-04-05T05:24:55.557Z,8.6
2019-04-05T05:25:57.596Z,8.8
2019-04-05T05:26:59.641Z,8.9
2019-04-05T05:28:02.093Z,9.1
2019-04-05T05:29:04.129Z,9
2019-04-05T05:30:06.166Z,9.2
2019-04-05T05:31:08.288Z,9.1
2019-04-05T05:32:10.873Z,9.2
2019-04-05T05:33:13.318Z,9.1
2019-04-05T05:34:15.386Z,9
2019-04-05T05:35:17.688Z,8.5
2019-04-05T05:36:19.780Z,8.6
2019-04-05T05:37:22.103Z,8.6
2019-04-05T05:38:24.145Z,8.7
2019-04-05T05:39:26.165Z,9
2019-04-05T05:40:36.798Z,9
2019-04-05T05:41:39.221Z,9.1
2019-04-05T05:42:41.273Z,9.1
2019-04-05T05:43:43.306Z,8.6
2019-04-05T05:44:45.738Z,8.3
2019-04-05T05:45:47.773Z,8.1
2019-04-05T05:46:49.805Z,8
2019-04-05T05:47:53.516Z,8.5
2019-04-05T05:48:56.121Z,8.3
2019-04-05T05:49:58.154Z,8.5
2019-04-05T05:51:00.187Z,8.7
2019-04-05T05:52:02.219Z,8.8
2019-04-05T05:53:04.270Z,8.8
2019-04-05T05:54:06.600Z,8.1
2019-04-05T05:55:08.644Z,8.2
2019-04-05T05:56:10.693Z,8.2
2019-04-05T05:57:12.730Z,7.8
2019-04-05T05:58:14.773Z,7.9
2019-04-05T05:59:16.798Z,8.1
2019-04-05T06:00:19.134Z,8.2
2019-04-05T06:01:21.162Z,8.6
2019-04-05T06:02:23.265Z,8.5
2019-04-05T06:03:25.294Z,8.3
2019-04-05T06:04:27.650Z,8.6
2019-04-05T06:05:29.667Z,8.6
2019-04-05T06:06:31.711Z,8.3
2019-04-05T06:07:33.752Z,8.4
2019-04-05T06:08:35.770Z,8.7
2019-04-05T06:09:37.858Z,8.8
2019-04-05T06:10:39.888Z,8.4
2019-04-05T06:11:41.932Z,8.5
2019-04-05T06:12:43.943Z,8.4
2019-04-05T06:13:45.988Z,8.8
2019-04-05T06:14:48.028Z,8.8
2019-04-05T06:15:50.061Z,9.1
2019-04-05T06:16:52.106Z,8.9
2019-04-05T06:18:06.507Z,8.8
2019-04-05T06:19:08.865Z,8.7
2019-04-05T06:20:10.899Z,8.9
2019-04-05T06:21:12.950Z,9
2019-04-05T06:22:14.992Z,8.8
2019-04-05T06:23:17.019Z,9
2019-04-05T06:24:19.055Z,8.9
2019-04-05T06:25:21.947Z,9.3
2019-04-05T06:26:24.129Z,9.5
2019-04-05T06:27:26.161Z,9.1
2019-04-05T06:28:29.231Z,9.2
2019-04-05T06:29:31.597Z,9.4
2019-04-05T06:30:33.639Z,8.5
2019-04-05T06:31:36.254Z,9.4
2019-04-05T06:32:38.403Z,9.5
2019-04-05T06:33:40.454Z,9.6
2019-04-05T06:34:42.479Z,9.8
2019-04-05T06:35:44.510Z,9.7
2019-04-05T06:36:46.824Z,9.7
2019-04-05T06:37:49.269Z,9.8
2019-04-05T06:38:51.301Z,10
2019-04-05T06:39:53.615Z,9.6
2019-04-05T06:40:55.714Z,9.1
2019-04-05T06:41:57.733Z,9.4
2019-04-05T06:43:00.162Z,9.4
2019-04-05T06:44:02.533Z,9.6
2019-04-05T06:45:04.574Z,9.2
2019-04-05T06:46:07.292Z,9.4
2019-04-05T06:47:09.600Z,9.2
2019-04-05T06:48:20.797Z,9.4
2019-04-05T06:49:23.123Z,9.3
2019-04-05T06:50:25.172Z,9.3
2019-04-05T06:51:27.198Z,9.6
2019-04-05T06:52:29.235Z,9.8
2019-04-05T06:53:31.278Z,9.8
2019-04-05T06:54:33.323Z,9.9
2019-04-05T06:55:35.351Z,10.2
2019-04-05T06:56:38.067Z,10.3
2019-04-05T06:57:40.195Z,10.3
2019-04-05T06:58:42.247Z,10.4
2019-04-05T06:59:44.309Z,10.4
2019-04-05T07:00:58.485Z,10.5
2019-04-05T07:02:00.561Z,10.3
2019-04-05T07:03:03.666Z,10.4
2019-04-05T07:04:06.007Z,10.1
2019-04-05T07:05:08.320Z,10.2
2019-04-05T07:06:10.367Z,10.4
2019-04-05T07:07:12.949Z,10.1
2019-04-05T07:08:18.000Z,10.3
2019-04-05T07:09:20.480Z,10.3
2019-04-05T07:10:22.812Z,10.3
2019-04-05T07:11:24.826Z,10.2
2019-04-05T07:12:26.875Z,10.5
2019-04-05T07:13:28.916Z,10.1
2019-04-05T07:14:30.953Z,10.5
2019-04-05T07:15:33.026Z,10.6
2019-04-05T07:16:35.049Z,10.8
2019-04-05T07:17:37.084Z,10.9
2019-04-05T07:18:39.121Z,10.9
2019-04-05T07:19:41.173Z,10.6
2019-04-05T07:20:43.202Z,10.6
2019-04-05T07:21:45.230Z,10.3
2019-04-05T07:22:47.268Z,10.2
2019-04-05T07:23:49.369Z,10.4
2019-04-05T07:24:51.420Z,10.5
2019-04-05T07:25:53.451Z,10.4
2019-04-05T07:26:55.871Z,10.4
2019-04-05T07:27:57.905Z,10.5
2019-04-05T07:29:00.232Z,10.6
2019-04-05T07:30:02.565Z,10.7
2019-04-05T07:31:04.612Z,10.6
2019-04-05T07:32:06.655Z,10.7
2019-04-05T07:33:08.962Z,10.7
2019-04-05T07:34:11.006Z,10.8
2019-04-05T07:35:13.036Z,10.9
2019-04-05T07:36:15.137Z,10.9
2019-04-05T07:37:17.171Z,10.8
2019-04-05T07:38:19.810Z,11.3
2019-04-05T07:39:21.856Z,11.1
2019-04-05T07:40:24.157Z,10.8
2019-04-05T07:41:26.885Z,11.1
2019-04-05T07:42:29.622Z,11.1
2019-04-05T07:43:31.660Z,11.3
2019-04-05T07:44:33.711Z,11.2
2019-04-05T07:45:35.758Z,11.2
2019-04-05T07:46:37.790Z,11
2019-04-05T07:47:39.820Z,10.6
2019-04-05T07:48:47.233Z,10.7
2019-04-05T07:49:49.263Z,11
2019-04-05T07:50:51.716Z,11.3
2019-04-05T07:51:53.742Z,11.4
2019-04-05T07:52:56.180Z,11.3
2019-04-05T07:53:58.215Z,11.4
2019-04-05T07:55:00.251Z,11.4
2019-04-05T07:56:02.295Z,11.6
2019-04-05T07:57:04.358Z,11.8
2019-04-05T07:58:06.430Z,11.7
2019-04-05T07:59:08.463Z,11.6
2019-04-05T08:00:10.502Z,11.6
2019-04-05T08:01:12.592Z,11.8
2019-04-05T08:02:14.639Z,11.8
2019-04-05T08:03:16.966Z,11.6
2019-04-05T08:04:19.436Z,11.7
2019-04-05T08:05:21.480Z,11.5
2019-04-05T08:06:23.582Z,12
2019-04-05T08:07:25.618Z,11.4
2019-04-05T08:08:27.664Z,11.7
2019-04-05T08:09:29.707Z,12.1
2019-04-05T08:10:31.778Z,12
2019-04-05T08:11:33.829Z,12.1
2019-04-05T08:12:35.863Z,12.1
2019-04-05T08:13:37.913Z,12
2019-04-05T08:14:40.011Z,11.6
2019-04-05T08:15:42.065Z,11.6
2019-04-05T08:16:44.098Z,11.5
2019-04-05T08:17:46.165Z,11.5
2019-04-05T08:18:59.560Z,11.5
2019-04-05T08:20:01.607Z,11.3
2019-04-05T08:21:03.936Z,11.8
2019-04-05T08:22:05.989Z,11.9
2019-04-05T08:23:08.318Z,12.4
2019-04-05T08:24:10.937Z,12.3
2019-04-05T08:25:13.336Z,12.1
2019-04-05T08:26:15.441Z,11.8
2019-04-05T08:27:17.490Z,12.5
2019-04-05T08:28:19.807Z,12.4
2019-04-05T08:29:21.842Z,12.3
2019-04-05T08:30:24.191Z,12.8
2019-04-05T08:31:26.602Z,12.9
2019-04-05T08:32:28.634Z,12.6
2019-04-05T08:33:30.743Z,13.1
2019-04-05T08:34:32.795Z,12.8
2019-04-05T08:35:35.211Z,13.1
2019-04-05T08:36:37.262Z,13
2019-04-05T08:37:39.679Z,13
2019-04-05T08:38:41.721Z,13.2
2019-04-05T08:39:43.776Z,13.3
2019-04-05T08:40:46.120Z,13.6
2019-04-05T08:41:48.164Z,13.5
2019-04-05T08:42:50.505Z,12.9
2019-04-05T08:43:52.827Z,13.4
2019-04-05T08:44:54.874Z,13.6
2019-04-05T08:45:56.917Z,13.7
2019-04-05T08:46:59.243Z,14
2019-04-05T08:48:01.683Z,14.6
2019-04-05T08:49:12.991Z,14.6
2019-04-05T08:50:15.046Z,14
2019-04-05T08:51:17.093Z,14.1
2019-04-05T08:52:19.122Z,14
2019-04-05T08:53:21.183Z,14.3
2019-04-05T08:54:37.876Z,14.1
2019-04-05T08:55:39.931Z,14.2
2019-04-05T08:56:42.662Z,14.3
2019-04-05T08:57:44.709Z,14.2
2019-04-05T08:58:49.896Z,14.6
2019-04-05T08:59:54.397Z,14.8
2019-04-05T09:00:56.496Z,15
2019-04-05T09:01:58.540Z,15
2019-04-05T09:03:00.584Z,15.2
2019-04-05T09:04:02.643Z,15
2019-04-05T09:05:04.700Z,15.3
2019-04-05T09:06:06.744Z,15.2
2019-04-05T09:07:08.870Z,15.4
2019-04-05T09:08:10.920Z,15.3
2019-04-05T09:09:12.961Z,15.4
2019-04-05T09:10:15.016Z,15.5
2019-04-05T09:11:17.062Z,15.6
2019-04-05T09:12:19.411Z,15.9
2019-04-05T09:13:21.469Z,16
2019-04-05T09:14:23.510Z,15.6
2019-04-05T09:15:25.543Z,15.4
2019-04-05T09:16:27.887Z,15.6
2019-04-05T09:17:29.927Z,15.8
2019-04-05T09:18:31.980Z,16.1
2019-04-05T09:19:34.032Z,15.5
2019-04-05T09:20:36.070Z,15.4
2019-04-05T09:21:42.060Z,15.7
2019-04-05T09:22:44.111Z,16.1
2019-04-05T09:23:46.166Z,15.6
2019-04-05T09:24:48.582Z,15.8
2019-04-05T09:25:50.688Z,16.1
2019-04-05T09:26:55.693Z,16.4
2019-04-05T09:27:57.738Z,16.7
2019-04-05T09:29:00.184Z,16.8
2019-04-05T09:30:02.227Z,16.9
2019-04-05T09:31:04.552Z,16.6
2019-04-05T09:32:07.160Z,16.9
2019-04-05T09:33:09.509Z,17
2019-04-05T09:34:11.594Z,17.6
2019-04-05T09:35:13.639Z,17.7
2019-04-05T09:36:16.023Z,17.4
2019-04-05T09:37:18.060Z,17.7
2019-04-05T09:38:20.121Z,17.8
2019-04-05T09:39:22.923Z,18.1
2019-04-05T09:40:25.689Z,18.2
2019-04-05T09:41:27.740Z,18.7
2019-04-05T09:42:29.812Z,18.5
2019-04-05T09:43:31.865Z,18.2
2019-04-05T09:44:34.030Z,17.4
2019-04-05T09:45:36.390Z,16.9
2019-04-05T09:46:52.483Z,17.3
2019-04-05T09:47:54.870Z,17.4
2019-04-05T09:48:57.006Z,17.2
2019-04-05T09:49:59.420Z,17.3
2019-04-05T09:51:01.833Z,17.2
2019-04-05T09:52:04.955Z,17.4
2019-04-05T09:53:07.005Z,17.1
2019-04-05T09:54:09.917Z,17.3
2019-04-05T09:55:12.256Z,17.4
2019-04-05T09:56:14.958Z,17.4
2019-04-05T09:57:17.283Z,17.4
2019-04-05T09:58:19.361Z,17.1
2019-04-05T09:59:21.414Z,16.9
2019-04-05T10:00:23.682Z,16.8
2019-04-05T10:01:25.763Z,17
2019-04-05T10:02:27.846Z,16.7
2019-04-05T10:03:30.145Z,16.9
2019-04-05T10:04:32.417Z,16.8
2019-04-05T10:05:34.822Z,17
2019-04-05T10:06:36.864Z,17.1
2019-04-05T10:07:56.648Z,17.4
2019-04-05T10:08:58.834Z,17
2019-04-05T10:10:00.929Z,16.8
2019-04-05T10:11:03.263Z,16.8
2019-04-05T10:12:05.622Z,17.3
2019-04-05T10:13:10.940Z,17.7
2019-04-05T10:14:13.503Z,17.5
2019-04-05T10:15:15.548Z,17.4
2019-04-05T10:16:18.163Z,17.5
2019-04-05T10:17:20.548Z,17.9
2019-04-05T10:18:22.684Z,18
2019-04-05T10:19:24.809Z,18.3
2019-04-05T10:20:26.909Z,18.3
2019-04-05T10:21:29.158Z,18.3
2019-04-05T10:22:31.239Z,18.2
2019-04-05T10:23:33.411Z,18.2
2019-04-05T10:24:35.538Z,18.6
2019-04-05T10:25:37.676Z,18.6
2019-04-05T10:26:40.051Z,18.7
2019-04-05T10:27:42.152Z,18.7
2019-04-05T10:28:44.452Z,18.7
2019-04-05T10:29:49.772Z,18.5
2019-04-05T10:30:53.367Z,18.5
2019-04-05T10:31:55.764Z,18.3
2019-04-05T10:32:57.923Z,18.6
2019-04-05T10:34:00.358Z,18.8
2019-04-05T10:35:02.916Z,19.2
2019-04-05T10:36:05.290Z,19.3
2019-04-05T10:37:07.462Z,19
2019-04-05T10:38:09.589Z,18.7
2019-04-05T10:39:12.419Z,18.3
2019-04-05T10:40:14.598Z,18.9
2019-04-05T10:41:16.672Z,19.2
2019-04-05T10:42:19.407Z,19.1
2019-04-05T10:43:21.509Z,19.6
2019-04-05T10:44:23.708Z,19.6
2019-04-05T10:45:25.758Z,19.7
2019-04-05T10:46:27.929Z,19.7
2019-04-05T10:47:30.117Z,20.3
2019-04-05T10:48:35.080Z,19.9
2019-04-05T10:49:37.607Z,20
2019-04-05T10:50:39.744Z,19.8
2019-04-05T10:51:42.535Z,19.7
2019-04-05T10:52:44.713Z,20.2
2019-04-05T10:53:46.769Z,19.8
2019-04-05T10:54:48.985Z,19.7
2019-04-05T10:55:51.046Z,19.7
2019-04-05T10:56:53.285Z,19.6
2019-04-05T10:57:55.478Z,19.8
2019-04-05T10:58:57.594Z,19.9
2019-04-05T10:59:59.744Z,20.1
2019-04-05T11:01:01.869Z,20.3
2019-04-05T11:02:04.269Z,20.3
2019-04-05T11:03:06.351Z,20
2019-04-05T11:04:08.818Z,20.4
2019-04-05T11:05:10.886Z,20.5
2019-04-05T11:06:13.046Z,20.4
2019-04-05T11:07:15.289Z,20.6
2019-04-05T11:08:17.379Z,20.6
2019-04-05T11:09:19.535Z,20.9
2019-04-05T11:10:21.612Z,20.4
2019-04-05T11:11:23.950Z,20.2
2019-04-05T11:12:26.122Z,20.2
2019-04-05T11:13:28.281Z,20.7
2019-04-05T11:14:30.491Z,20.5
2019-04-05T11:15:32.857Z,20.4
2019-04-05T11:16:34.951Z,20.6
2019-04-05T11:17:37.026Z,20.8
2019-04-05T11:18:39.140Z,20.7
2019-04-05T11:19:41.227Z,20.3
2019-04-05T11:20:43.669Z,20.2
2019-04-05T11:21:53.393Z,20.3
2019-04-05T11:22:55.741Z,20.5
2019-04-05T11:23:57.798Z,20.4
2019-04-05T11:24:59.850Z,21.4
2019-04-05T11:26:01.915Z,21.4
2019-04-05T11:27:07.932Z,21.4
2019-04-05T11:28:09.998Z,21.5
2019-04-05T11:29:15.692Z,21.6
2019-04-05T11:30:17.735Z,21.3
2019-04-05T11:31:20.081Z,21.5
2019-04-05T11:32:22.178Z,21.3
2019-04-05T11:33:24.231Z,21.3
2019-04-05T11:34:26.608Z,21.4
2019-04-05T11:35:28.685Z,21.7
2019-04-05T11:36:30.735Z,21.4
2019-04-05T11:37:32.820Z,21.5
2019-04-05T11:38:34.993Z,21.5
2019-04-05T11:39:37.465Z,21.8
2019-04-05T11:40:39.821Z,21.7
2019-04-05T11:41:41.900Z,21.3
2019-04-05T11:42:43.947Z,21.3
2019-04-05T11:43:46.335Z,21.3
2019-04-05T11:44:48.407Z,21.5
2019-04-05T11:45:52.490Z,21.5
2019-04-05T11:46:54.563Z,21.3
2019-04-05T11:47:59.230Z,21.5
2019-04-05T11:49:05.560Z,21.6
2019-04-05T11:50:07.616Z,21.8
2019-04-05T11:51:09.683Z,21.9
2019-04-05T11:52:11.728Z,22
2019-04-05T11:53:13.786Z,21.8
2019-04-05T11:54:19.019Z,21.6
2019-04-05T11:55:21.361Z,21.6
2019-04-05T11:56:23.411Z,21.6
2019-04-05T11:57:25.476Z,21.5
2019-04-05T11:58:27.522Z,21.5
2019-04-05T11:59:30.242Z,21.3
2019-04-05T12:00:32.326Z,21.2
2019-04-05T12:01:34.402Z,21.2
2019-04-05T12:02:36.744Z,21.5
2019-04-05T12:03:39.095Z,21.9
2019-04-05T12:04:44.273Z,22
2019-04-05T12:05:46.537Z,22.3
2019-04-05T12:06:52.840Z,22.5
2019-04-05T12:08:03.209Z,22.5
2019-04-05T12:09:05.569Z,22.5
2019-04-05T12:10:07.631Z,21.9
2019-04-05T12:11:09.710Z,21.9
2019-04-05T12:12:11.754Z,22
2019-04-05T12:13:13.819Z,21.8
2019-04-05T12:14:29.268Z,21.5
2019-04-05T12:15:37.320Z,21.3
2019-04-05T12:16:39.394Z,21.7
2019-04-05T12:17:41.503Z,21.8
2019-04-05T12:18:43.581Z,21.9
2019-04-05T12:19:45.640Z,22
2019-04-05T12:21:06.251Z,21.9
2019-04-05T12:22:10.367Z,22.2
2019-04-05T12:23:12.701Z,22.2
2019-04-05T12:24:14.768Z,22.3
2019-04-05T12:25:17.084Z,22
2019-04-05T12:26:19.168Z,21.8
2019-04-05T12:27:22.364Z,22.2
2019-04-05T12:28:24.423Z,21.7
2019-04-05T12:29:26.872Z,22.1
2019-04-05T12:30:28.934Z,22
2019-04-05T12:31:30.988Z,21.5
2019-04-05T12:32:42.471Z,21.2
2019-04-05T12:33:53.115Z,21.6
2019-04-05T12:34:55.179Z,21.7
2019-04-05T12:35:57.878Z,21.4
2019-04-05T12:36:59.942Z,21.3
2019-04-05T12:38:01.980Z,21.5
2019-04-05T12:39:09.673Z,21.3
2019-04-05T12:40:15.965Z,20.9
2019-04-05T12:41:19.504Z,21.5
2019-04-05T12:42:21.553Z,21.4
2019-04-05T12:43:23.614Z,21.2
2019-04-05T12:44:25.670Z,20.7
2019-04-05T12:45:27.738Z,21
2019-04-05T12:46:29.775Z,21.2
2019-04-05T12:47:35.200Z,21.6
2019-04-05T12:48:37.542Z,21.6
2019-04-05T12:49:39.597Z,21.6
2019-04-05T12:50:46.304Z,21.8
2019-04-05T12:51:48.425Z,21.4
2019-04-05T12:52:50.487Z,21.3
2019-04-05T12:53:57.491Z,21.4
2019-04-05T12:54:59.633Z,21.5
2019-04-05T12:56:02.361Z,21
2019-04-05T12:57:04.418Z,21.2
2019-04-05T12:58:06.480Z,21.4
2019-04-05T12:59:08.822Z,21.3
2019-04-05T13:00:14.474Z,21.2
2019-04-05T13:01:16.542Z,21.4
2019-04-05T13:02:35.229Z,21.3
2019-04-05T13:03:37.291Z,21.5
2019-04-05T13:04:39.353Z,20.9
2019-04-05T13:05:41.407Z,21.3
2019-04-05T13:06:43.759Z,21
2019-04-05T13:07:45.832Z,20.7
2019-04-05T13:08:47.939Z,20.7
2019-04-05T13:09:55.564Z,20.4
2019-04-05T13:10:58.126Z,20.7
2019-04-05T13:12:00.190Z,21.2
2019-04-05T13:13:02.553Z,21.3
2019-04-05T13:14:04.964Z,21
2019-04-05T13:15:18.519Z,20.7
2019-04-05T13:16:21.250Z,20.7
2019-04-05T13:17:23.642Z,21.2
2019-04-05T13:18:31.773Z,21.4
2019-04-05T13:19:34.333Z,21.2
2019-04-05T13:20:36.384Z,20.8
2019-04-05T13:21:38.440Z,20.4
2019-04-05T13:22:40.490Z,19.8
2019-04-05T13:23:42.561Z,19.5
2019-04-05T13:24:44.621Z,19.3
2019-04-05T13:25:47.078Z,19.2
2019-04-05T13:26:50.058Z,19.4
2019-04-05T13:27:52.378Z,19.9
2019-04-05T13:28:54.755Z,19.8
2019-04-05T13:29:56.793Z,20
2019-04-05T13:30:59.139Z,19.9
2019-04-05T13:32:01.262Z,19.2
2019-04-05T13:33:03.303Z,19.5
2019-04-05T13:34:07.258Z,19.5
2019-04-05T13:35:09.584Z,19.7
2019-04-05T13:36:11.921Z,19.7
2019-04-05T13:37:21.637Z,19.9
2019-04-05T13:38:23.705Z,20.1
2019-04-05T13:39:30.286Z,20.4
2019-04-05T13:40:32.423Z,20.4
2019-04-05T13:41:34.505Z,20.5
2019-04-05T13:42:36.726Z,20.2
2019-04-05T13:43:38.781Z,20.1
2019-04-05T13:44:40.866Z,20.2
2019-04-05T13:45:42.894Z,19.5
2019-04-05T13:46:45.234Z,19.9
2019-04-05T13:47:47.282Z,19.7
2019-04-05T13:48:49.329Z,19.5
2019-04-05T13:49:51.569Z,19.4
2019-04-05T13:50:53.621Z,19.8
2019-04-05T13:51:55.969Z,19.9
2019-04-05T13:52:58.232Z,19.9
2019-04-05T13:54:00.667Z,19.9
2019-04-05T13:55:02.709Z,20
2019-04-05T13:56:05.047Z,19.8
2019-04-05T13:57:11.823Z,19.9
2019-04-05T13:58:14.449Z,20.1
2019-04-05T13:59:16.509Z,20
2019-04-05T14:00:20.111Z,20.4
2019-04-05T14:01:23.145Z,20.2
2019-04-05T14:02:25.291Z,20
2019-04-05T14:03:27.329Z,20
2019-04-05T14:04:30.840Z,19.8
2019-04-05T14:05:32.910Z,19.6
2019-04-05T14:06:34.953Z,20.1
2019-04-05T14:07:37.706Z,20.1
2019-04-05T14:08:43.175Z,19.8
2019-04-05T14:09:45.216Z,20.1